KSUS/SUS METAR and TAF weather

Enter ICAO airport designator
Station Type Date Time Source
KSUS METAR 2021/05/17 22:54 UTC NOAA

KSUS 172254Z 14007KT 10SM OVC035 21/15 A3000 RMK AO2 SLP155 T02110150 $


Station Type Date Time Source
KSUS Decoded METAR 2021/05/17 22:54 UTC NOAA

SPIRIT OF ST. LOUIS AIRPORT , MO, United States (KSUS) 38-39N 090-39W 141M
May 17, 2021 - 06:54 PM EDT / 2021.05.17 2254 UTC
Wind: from the SE (140 degrees) at 8 MPH (7 KT):0
Visibility: 10 mile(s):0
Sky conditions: overcast
Temperature: 70.0 F (21.1 C)
Dew Point: 59.0 F (15.0 C)
Relative Humidity: 68%
Pressure (altimeter): 30 in. Hg (1015 hPa)
ob: KSUS 172254Z 14007KT 10SM OVC035 21/15 A3000 RMK AO2 SLP155 T02110150
cycle: 23

Station Type Date Time Source
KSUS TAF 2021/05/17 22:06 UTC NOAA

TAF
AMD KSUS 172203Z 1722/1818 15009KT P6SM VCSH BKN035
FM180000 15013KT 6SM -SHRA BR OVC025
FM181000 15009KT P6SM VCSH OVC014

Example: see airport list